• Join FlightAware (Why Join?)
  • Login
  • US Flag 
07:12PM EDT


 

Airport Tracker/Info


-or-


 

Live Flight TrackerFlight Track Log ✈ FIN666 ✈ 28-Feb-2014 ✈ EKCH / CPH - EFHK / HEL

Flight Track Log - Related Links

Times and Time Zones

All times are in EST time to prevent confusion due to time zone crossing. See the FIN666 flight status page for this flight to view local times or setup timezone preferences in your user account.

Time Position Orientation Groundspeed Altitude Reporting Facility
EST Latitude Longitude Course Direction KTS MPH feet Rate Location/Type
07:29AM 55.8420 13.1192 49° Northeast  Level Estimated
07:30AM 55.9164 13.2747 50° Northeast  Level Estimated
07:31AM 55.9987 13.4483 50° Northeast  Level Estimated
07:32AM 56.0808 13.6226 50° Northeast  Level Estimated
07:33AM 56.1627 13.7977 50° Northeast  Level Estimated
07:34AM 56.2443 13.9735 50° Northeast  Level Estimated
07:35AM 56.3256 14.1500 50° Northeast  Level Estimated
07:36AM 56.4067 14.3273 50° Northeast  Level Estimated
07:37AM 56.4876 14.5054 51° Northeast  Level Estimated
07:38AM 56.5682 14.6842 51° Northeast  Level Estimated
07:39AM 56.6485 14.8638 51° Northeast  Level Estimated
07:40AM 56.7286 15.0441 51° Northeast  Level Estimated
07:41AM 56.8084 15.2252 51° Northeast  Level Estimated
07:42AM 56.8880 15.4071 51° Northeast  Level Estimated
07:43AM 56.9673 15.5898 51° Northeast  Level Estimated
07:44AM 57.0463 15.7732 52° Northeast  Level Estimated
07:45AM 57.1250 15.9574 52° Northeast  Level Estimated
07:46AM 57.2035 16.1425 52° Northeast  Level Estimated
07:47AM 57.2817 16.3282 52° Northeast  Level Estimated
07:48AM 57.3596 16.5148 52° Northeast  Level Estimated
07:49AM 57.4373 16.7022 52° Northeast  Level Estimated
07:50AM 57.5079 16.8740 53° Northeast  Level Estimated
07:51AM 57.5784 17.0464 53° Northeast  Level Estimated
07:52AM 57.6486 17.2195 53° Northeast  Level Estimated
07:53AM 57.7185 17.3933 53° Northeast  Level Estimated
07:54AM 57.7882 17.5677 53° Northeast  Level Estimated
07:55AM 57.8577 17.7429 53° Northeast  Level Estimated
07:56AM 57.9269 17.9187 53° Northeast  Level Estimated
07:57AM 57.9959 18.0951 54° Northeast  Level Estimated
07:58AM 58.0646 18.2723 54° Northeast  Level Estimated
07:59AM 58.1331 18.4501 54° Northeast  Level Estimated
08:00AM 58.2014 18.6287 54° Northeast  Level Estimated
08:01AM 58.2694 18.8079 54° Northeast  Level Estimated
08:02AM 58.3371 18.9878 54° Northeast  Level Estimated
08:03AM 58.4046 19.1684 54° Northeast  Level Estimated
08:04AM 58.4718 19.3496 55° Northeast  Level Estimated
08:05AM 58.5388 19.5316 55° Northeast  Level Estimated
08:06AM 58.6055 19.7143 55° Northeast  Level Estimated
08:07AM 58.6720 19.8976 55° Northeast  Level Estimated
08:08AM 58.7382 20.0817 55° Northeast  Level Estimated
08:09AM 58.8041 20.2665 55° Northeast  Level Estimated
08:10AM 58.8698 20.4519 56° Northeast  Level Estimated
08:11AM 58.9352 20.6381 56° Northeast  Level Estimated
08:12AM 59.0003 20.8250 56° Northeast  Level Estimated
08:13AM 59.0652 21.0125 56° Northeast  Level Estimated
08:14AM 59.1298 21.2008 56° Northeast  Level Estimated
08:15AM 59.1941 21.3898 56° Northeast  Level Estimated
08:16AM 59.2581 21.5795 57° Northeast  Level Estimated
08:17AM 59.3219 21.7700 57° Northeast  Level Estimated
08:18AM 59.3854 21.9611 57° Northeast  Level Estimated
08:19AM 59.4486 22.1530 57° Northeast  Level Estimated
08:20AM 59.5115 22.3455 57° Northeast  Level Estimated
08:21AM 59.5742 22.5388 57° Northeast  Level Estimated
08:22AM 59.6365 22.7328 57° Northeast  Level Estimated
08:23AM 59.6986 22.9275 58° Northeast  Level Estimated
08:24AM 59.7604 23.1230 58° Northeast  Level Estimated
08:25AM 59.8219 23.3192 58° Northeast  Level Estimated
08:26AM 59.8831 23.5161 58° Northeast  Level Estimated
08:27AM 59.9440 23.7137 58° Northeast  Level Estimated
08:28AM 60.0046 23.9120 59° Northeast  Level Estimated
08:29AM 60.0649 24.1111 59° Northeast  Level Estimated
08:30AM 60.1249 24.3109 59° Northeast  Level Estimated
08:31AM 60.1846 24.5114 59° Northeast  Level Estimated
08:32AM 60.2440 24.7127 59° Northeast  Level Estimated
08:33AM 60.3031 24.9147 59° Northeast  Level Estimated
08:34AM 60.3172 24.9633 60° Northeast  Level Estimated
08:35AM 60.3172 24.9633 37° Northeast  Level Estimated
08:36AM 60.3172 24.9633 37° Northeast  Level Estimated
08:37AM 60.3172 24.9633 37° Northeast  Level Estimated
08:38AM 60.3172 24.9633 37° Northeast  Level Estimated
08:39AM 60.3172 24.9633 37° Northeast  Level Estimated
08:40AM 60.3172 24.9633 37° Northeast  Level Estimated
08:41AM 60.3172 24.9633 37° Northeast  Level Estimated
08:42AM 60.3172 24.9633 37° Northeast  Level Estimated
08:43AM 60.3172 24.9633 37° Northeast  Level Estimated
08:44AM 60.3172 24.9633 37° Northeast  Level Estimated
08:45AM 60.3172 24.9633 37° Northeast  Level Estimated